sensor_id;sensor_type;location;lat;lon;timestamp;pressure;altitude;pressure_sealevel;temperature;humidity
71145;BME280;58812;47.698;17.726;2023-02-19T00:02:11;100453.72;;;9.60;100.00
71145;BME280;58812;47.698;17.726;2023-02-19T00:04:37;100468.63;;;9.63;100.00
71145;BME280;58812;47.698;17.726;2023-02-19T00:07:02;100459.38;;;9.67;100.00
71145;BME280;58812;47.698;17.726;2023-02-19T00:09:28;100469.34;;;9.65;100.00
71145;BME280;58812;47.698;17.726;2023-02-19T00:11:53;100470.47;;;9.72;100.00
71145;BME280;58812;47.698;17.726;2023-02-19T00:14:20;100459.38;;;9.77;100.00
71145;BME280;58812;47.698;17.726;2023-02-19T00:16:46;100455.72;;;9.78;100.00
71145;BME280;58812;47.698;17.726;2023-02-19T00:19:14;100466.84;;;9.73;100.00
71145;BME280;58812;47.698;17.726;2023-02-19T00:21:40;100457.66;;;9.66;100.00
71145;BME280;58812;47.698;17.726;2023-02-19T00:24:07;100455.53;;;9.60;100.00
71145;BME280;58812;47.698;17.726;2023-02-19T00:26:33;100456.06;;;9.54;100.00
71145;BME280;58812;47.698;17.726;2023-02-19T00:28:59;100453.94;;;9.48;100.00
71145;BME280;58812;47.698;17.726;2023-02-19T00:31:33;100458.06;;;9.52;100.00
71145;BME280;58812;47.698;17.726;2023-02-19T00:34:01;100465.91;;;9.44;100.00
71145;BME280;58812;47.698;17.726;2023-02-19T00:36:29;100472.62;;;9.38;100.00
71145;BME280;58812;47.698;17.726;2023-02-19T00:38:55;100470.06;;;9.36;100.00
71145;BME280;58812;47.698;17.726;2023-02-19T00:41:21;100470.06;;;9.36;100.00
71145;BME280;58812;47.698;17.726;2023-02-19T00:43:58;100461.22;;;9.36;100.00
71145;BME280;58812;47.698;17.726;2023-02-19T00:46:31;100453.09;;;9.38;100.00
71145;BME280;58812;47.698;17.726;2023-02-19T00:48:57;100459.72;;;9.43;100.00
71145;BME280;58812;47.698;17.726;2023-02-19T00:51:25;100460.56;;;9.44;100.00
71145;BME280;58812;47.698;17.726;2023-02-19T00:53:51;100469.41;;;9.44;100.00
71145;BME280;58812;47.698;17.726;2023-02-19T00:56:17;100465.31;;;9.40;100.00
71145;BME280;58812;47.698;17.726;2023-02-19T00:58:42;100458.53;;;9.36;100.00
71145;BME280;58812;47.698;17.726;2023-02-19T01:01:08;100464.31;;;9.31;100.00
71145;BME280;58812;47.698;17.726;2023-02-19T01:03:37;100479.34;;;9.32;100.00
71145;BME280;58812;47.698;17.726;2023-02-19T01:06:03;100467.09;;;9.30;100.00
71145;BME280;58812;47.698;17.726;2023-02-19T01:08:30;100448.00;;;9.34;100.00
71145;BME280;58812;47.698;17.726;2023-02-19T01:10:56;100451.56;;;9.45;100.00
71145;BME280;58812;47.698;17.726;2023-02-19T01:13:22;100446.47;;;9.42;100.00
71145;BME280;58812;47.698;17.726;2023-02-19T01:15:47;100450.13;;;9.41;100.00
71145;BME280;58812;47.698;17.726;2023-02-19T01:18:13;100473.19;;;9.42;100.00
71145;BME280;58812;47.698;17.726;2023-02-19T01:20:40;100468.13;;;9.39;100.00
71145;BME280;58812;47.698;17.726;2023-02-19T01:23:06;100450.97;;;9.41;100.00
71145;BME280;58812;47.698;17.726;2023-02-19T01:25:32;100436.81;;;9.50;100.00
71145;BME280;58812;47.698;17.726;2023-02-19T01:27:58;100427.41;;;9.56;100.00
71145;BME280;58812;47.698;17.726;2023-02-19T01:30:23;100437.56;;;9.62;100.00
71145;BME280;58812;47.698;17.726;2023-02-19T01:32:48;100437.66;;;9.51;100.00
71145;BME280;58812;47.698;17.726;2023-02-19T01:35:14;100436.50;;;9.44;100.00
71145;BME280;58812;47.698;17.726;2023-02-19T01:37:39;100442.16;;;9.50;100.00
71145;BME280;58812;47.698;17.726;2023-02-19T01:40:05;100440.31;;;9.51;100.00
71145;BME280;58812;47.698;17.726;2023-02-19T01:42:31;100434.53;;;9.46;100.00
71145;BME280;58812;47.698;17.726;2023-02-19T01:47:43;100429.03;;;9.38;100.00
71145;BME280;58812;47.698;17.726;2023-02-19T01:50:09;100417.16;;;9.30;100.00
71145;BME280;58812;47.698;17.726;2023-02-19T01:52:35;100421.13;;;9.26;100.00
71145;BME280;58812;47.698;17.726;2023-02-19T01:55:03;100433.19;;;9.21;100.00
71145;BME280;58812;47.698;17.726;2023-02-19T01:57:34;100427.53;;;9.14;100.00
71145;BME280;58812;47.698;17.726;2023-02-19T02:00:14;100426.94;;;9.10;100.00
71145;BME280;58812;47.698;17.726;2023-02-19T02:02:42;100429.16;;;9.05;100.00
71145;BME280;58812;47.698;17.726;2023-02-19T02:08:03;100422.53;;;9.00;100.00
71145;BME280;58812;47.698;17.726;2023-02-19T02:10:47;100408.00;;;8.93;100.00
71145;BME280;58812;47.698;17.726;2023-02-19T02:13:12;100407.41;;;8.89;100.00
71145;BME280;58812;47.698;17.726;2023-02-19T02:15:46;100399.69;;;8.86;100.00
71145;BME280;58812;47.698;17.726;2023-02-19T02:18:52;100415.25;;;8.81;100.00
71145;BME280;58812;47.698;17.726;2023-02-19T02:29:54;100404.59;;;8.60;100.00
71145;BME280;58812;47.698;17.726;2023-02-19T02:35:21;100396.37;;;8.52;100.00
71145;BME280;58812;47.698;17.726;2023-02-19T02:37:48;100391.78;;;8.54;100.00
71145;BME280;58812;47.698;17.726;2023-02-19T02:40:16;100395.41;;;8.74;100.00
71145;BME280;58812;47.698;17.726;2023-02-19T02:42:42;100392.28;;;8.90;100.00
71145;BME280;58812;47.698;17.726;2023-02-19T02:48:08;100391.22;;;9.12;100.00
71145;BME280;58812;47.698;17.726;2023-02-19T02:50:41;100398.75;;;9.27;100.00
71145;BME280;58812;47.698;17.726;2023-02-19T02:53:14;100387.09;;;9.28;100.00
71145;BME280;58812;47.698;17.726;2023-02-19T02:56:00;100385.09;;;9.21;100.00
71145;BME280;58812;47.698;17.726;2023-02-19T02:58:27;100385.94;;;9.21;100.00
71145;BME280;58812;47.698;17.726;2023-02-19T03:00:58;100383.44;;;9.29;100.00
71145;BME280;58812;47.698;17.726;2023-02-19T03:03:46;100361.63;;;9.24;100.00
71145;BME280;58812;47.698;17.726;2023-02-19T03:06:16;100364.03;;;9.27;100.00
71145;BME280;58812;47.698;17.726;2023-02-19T03:08:48;100359.22;;;9.21;100.00
71145;BME280;58812;47.698;17.726;2023-02-19T03:11:18;100366.94;;;9.24;100.00
71145;BME280;58812;47.698;17.726;2023-02-19T03:14:21;100363.28;;;9.16;100.00
71145;BME280;58812;47.698;17.726;2023-02-19T03:17:11;100359.72;;;9.05;100.00
71145;BME280;58812;47.698;17.726;2023-02-19T03:19:59;100348.28;;;8.94;100.00
71145;BME280;58812;47.698;17.726;2023-02-19T03:22:33;100351.78;;;8.85;100.00
71145;BME280;58812;47.698;17.726;2023-02-19T03:25:06;100359.19;;;8.81;100.00
71145;BME280;58812;47.698;17.726;2023-02-19T03:27:53;100348.28;;;8.94;100.00
71145;BME280;58812;47.698;17.726;2023-02-19T03:30:23;100345.09;;;9.00;100.00
71145;BME280;58812;47.698;17.726;2023-02-19T03:33:16;100351.84;;;9.04;100.00
71145;BME280;58812;47.698;17.726;2023-02-19T03:35:53;100357.97;;;8.95;100.00
71145;BME280;58812;47.698;17.726;2023-02-19T03:38:41;100350.41;;;9.00;100.00
71145;BME280;58812;47.698;17.726;2023-02-19T03:46:55;100356.50;;;9.02;100.00
71145;BME280;58812;47.698;17.726;2023-02-19T03:52:40;100364.22;;;9.05;100.00
71145;BME280;58812;47.698;17.726;2023-02-19T03:55:13;100359.16;;;9.02;100.00
71145;BME280;58812;47.698;17.726;2023-02-19T04:00:30;100359.31;;;9.10;100.00
71145;BME280;58812;47.698;17.726;2023-02-19T04:05:32;100352.06;;;9.22;100.00
71145;BME280;58812;47.698;17.726;2023-02-19T04:08:08;100343.47;;;9.18;100.00
71145;BME280;58812;47.698;17.726;2023-02-19T04:10:36;100348.94;;;9.17;100.00
71145;BME280;58812;47.698;17.726;2023-02-19T04:13:05;100350.62;;;9.08;100.00
71145;BME280;58812;47.698;17.726;2023-02-19T04:15:34;100346.56;;;9.14;100.00
71145;BME280;58812;47.698;17.726;2023-02-19T04:18:07;100337.56;;;9.15;100.00
71145;BME280;58812;47.698;17.726;2023-02-19T04:20:39;100334.16;;;9.13;100.00
71145;BME280;58812;47.698;17.726;2023-02-19T04:23:06;100333.91;;;9.16;100.00
71145;BME280;58812;47.698;17.726;2023-02-19T04:25:34;100328.72;;;9.14;100.00
71145;BME280;58812;47.698;17.726;2023-02-19T04:28:02;100323.47;;;9.13;100.00
71145;BME280;58812;47.698;17.726;2023-02-19T04:30:28;100318.72;;;9.16;100.00
71145;BME280;58812;47.698;17.726;2023-02-19T04:32:53;100318.47;;;9.19;100.00
71145;BME280;58812;47.698;17.726;2023-02-19T04:35:19;100313.12;;;9.29;100.00
71145;BME280;58812;47.698;17.726;2023-02-19T04:37:44;100304.00;;;9.41;100.00
71145;BME280;58812;47.698;17.726;2023-02-19T04:40:09;100314.03;;;9.49;100.00
71145;BME280;58812;47.698;17.726;2023-02-19T04:42:35;100310.78;;;9.45;100.00
71145;BME280;58812;47.698;17.726;2023-02-19T04:45:00;100318.81;;;9.55;100.00
71145;BME280;58812;47.698;17.726;2023-02-19T04:47:26;100323.03;;;9.57;100.00
71145;BME280;58812;47.698;17.726;2023-02-19T04:49:51;100329.75;;;9.42;100.00
71145;BME280;58812;47.698;17.726;2023-02-19T04:52:17;100333.56;;;9.49;100.00
71145;BME280;58812;47.698;17.726;2023-02-19T04:54:42;100341.16;;;9.54;100.00
71145;BME280;58812;47.698;17.726;2023-02-19T04:57:08;100340.91;;;9.57;100.00
71145;BME280;58812;47.698;17.726;2023-02-19T04:59:33;100343.28;;;9.50;100.00
71145;BME280;58812;47.698;17.726;2023-02-19T05:01:59;100331.31;;;9.45;100.00
71145;BME280;58812;47.698;17.726;2023-02-19T05:04:24;100331.75;;;9.50;100.00
71145;BME280;58812;47.698;17.726;2023-02-19T05:06:50;100336.53;;;9.56;100.00
71145;BME280;58812;47.698;17.726;2023-02-19T05:09:15;100333.44;;;9.51;100.00
71145;BME280;58812;47.698;17.726;2023-02-19T05:11:40;100328.09;;;9.51;100.00
71145;BME280;58812;47.698;17.726;2023-02-19T05:14:06;100328.09;;;9.51;100.00
71145;BME280;58812;47.698;17.726;2023-02-19T05:16:31;100327.81;;;9.44;100.00
71145;BME280;58812;47.698;17.726;2023-02-19T05:18:57;100322.72;;;9.41;100.00
71145;BME280;58812;47.698;17.726;2023-02-19T05:21:23;100328.63;;;9.45;100.00
71145;BME280;58812;47.698;17.726;2023-02-19T05:23:48;100332.75;;;9.49;100.00
71145;BME280;58812;47.698;17.726;2023-02-19T05:26:19;100321.91;;;9.60;100.00
71145;BME280;58812;47.698;17.726;2023-02-19T05:28:47;100327.78;;;9.54;100.00
71145;BME280;58812;47.698;17.726;2023-02-19T05:31:13;100340.91;;;9.57;100.00
71145;BME280;58812;47.698;17.726;2023-02-19T05:33:39;100340.78;;;9.68;100.00
71145;BME280;58812;47.698;17.726;2023-02-19T05:36:08;100339.09;;;9.67;100.00
71145;BME280;58812;47.698;17.726;2023-02-19T05:38:35;100346.13;;;9.68;100.00
71145;BME280;58812;47.698;17.726;2023-02-19T05:41:13;100339.94;;;9.68;100.00
71145;BME280;58812;47.698;17.726;2023-02-19T05:43:40;100324.31;;;9.73;100.00
71145;BME280;58812;47.698;17.726;2023-02-19T05:46:06;100328.00;;;9.91;100.00
71145;BME280;58812;47.698;17.726;2023-02-19T05:48:32;100313.34;;;9.85;100.00
71145;BME280;58812;47.698;17.726;2023-02-19T05:51:02;100316.84;;;9.96;100.00
71145;BME280;58812;47.698;17.726;2023-02-19T05:53:28;100316.16;;;10.03;100.00
71145;BME280;58812;47.698;17.726;2023-02-19T05:55:54;100319.81;;;10.02;100.00
71145;BME280;58812;47.698;17.726;2023-02-19T05:58:19;100323.34;;;10.03;100.00
71145;BME280;58812;47.698;17.726;2023-02-19T06:00:45;100328.97;;;10.00;100.00
71145;BME280;58812;47.698;17.726;2023-02-19T06:03:10;100312.91;;;10.00;100.00
71145;BME280;58812;47.698;17.726;2023-02-19T06:05:36;100318.09;;;10.01;100.00
71145;BME280;58812;47.698;17.726;2023-02-19T06:08:02;100311.50;;;9.96;100.00
71145;BME280;58812;47.698;17.726;2023-02-19T06:10:27;100308.69;;;9.87;100.00
71145;BME280;58812;47.698;17.726;2023-02-19T06:12:53;100308.44;;;9.90;100.00
71145;BME280;58812;47.698;17.726;2023-02-19T06:15:19;100313.47;;;9.94;100.00
71145;BME280;58812;47.698;17.726;2023-02-19T06:17:45;100309.38;;;9.89;100.00
71145;BME280;58812;47.698;17.726;2023-02-19T06:20:10;100299.41;;;9.92;100.00
71145;BME280;58812;47.698;17.726;2023-02-19T06:22:36;100308.28;;;9.82;100.00
71145;BME280;58812;47.698;17.726;2023-02-19T06:25:01;100309.00;;;9.84;100.00
71145;BME280;58812;47.698;17.726;2023-02-19T06:27:26;100309.00;;;9.84;100.00
71145;BME280;58812;47.698;17.726;2023-02-19T06:29:52;100311.37;;;9.87;100.00
71145;BME280;58812;47.698;17.726;2023-02-19T06:32:18;100326.16;;;9.82;100.00
71145;BME280;58812;47.698;17.726;2023-02-19T06:34:43;100328.25;;;9.88;100.00
71145;BME280;58812;47.698;17.726;2023-02-19T06:37:08;100331.34;;;9.74;100.00
71145;BME280;58812;47.698;17.726;2023-02-19T06:39:34;100343.78;;;8.85;100.00
71145;BME280;58812;47.698;17.726;2023-02-19T06:41:59;100339.13;;;8.56;100.00
71145;BME280;58812;47.698;17.726;2023-02-19T06:44:25;100346.75;;;8.40;100.00
71145;BME280;58812;47.698;17.726;2023-02-19T06:46:53;100342.94;;;8.21;100.00
71145;BME280;58812;47.698;17.726;2023-02-19T06:49:19;100342.28;;;8.08;100.00
71145;BME280;58812;47.698;17.726;2023-02-19T06:51:46;100342.13;;;7.89;100.00
71145;BME280;58812;47.698;17.726;2023-02-19T06:54:15;100340.72;;;7.73;100.00
71145;BME280;58812;47.698;17.726;2023-02-19T06:56:40;100353.09;;;7.63;100.00
71145;BME280;58812;47.698;17.726;2023-02-19T06:59:12;100345.13;;;7.52;100.00
71145;BME280;58812;47.698;17.726;2023-02-19T07:01:38;100357.75;;;7.39;100.00
71145;BME280;58812;47.698;17.726;2023-02-19T07:04:04;100362.87;;;7.31;100.00
71145;BME280;58812;47.698;17.726;2023-02-19T07:06:30;100360.72;;;7.25;100.00
71145;BME280;58812;47.698;17.726;2023-02-19T07:08:57;100366.88;;;7.14;100.00
71145;BME280;58812;47.698;17.726;2023-02-19T07:11:28;100367.72;;;7.03;100.00
71145;BME280;58812;47.698;17.726;2023-02-19T07:13:54;100372.31;;;6.90;100.00
71145;BME280;58812;47.698;17.726;2023-02-19T07:16:20;100373.28;;;6.78;100.00
71145;BME280;58812;47.698;17.726;2023-02-19T07:18:46;100373.66;;;6.73;100.00
71145;BME280;58812;47.698;17.726;2023-02-19T07:21:13;100382.22;;;6.65;100.00
71145;BME280;58812;47.698;17.726;2023-02-19T07:23:40;100374.47;;;6.62;100.00
71145;BME280;58812;47.698;17.726;2023-02-19T07:26:11;100376.88;;;6.54;100.00
71145;BME280;58812;47.698;17.726;2023-02-19T07:28:37;100370.22;;;6.49;100.00
71145;BME280;58812;47.698;17.726;2023-02-19T07:31:03;100362.59;;;6.44;100.00
71145;BME280;58812;47.698;17.726;2023-02-19T07:33:29;100370.81;;;6.41;100.00
71145;BME280;58812;47.698;17.726;2023-02-19T07:35:54;100361.75;;;6.43;100.00
71145;BME280;58812;47.698;17.726;2023-02-19T07:38:22;100370.81;;;6.41;100.00
71145;BME280;58812;47.698;17.726;2023-02-19T07:40:51;100380.47;;;6.42;100.00
71145;BME280;58812;47.698;17.726;2023-02-19T07:43:17;100370.69;;;6.42;100.00
71145;BME280;58812;47.698;17.726;2023-02-19T07:45:43;100360.06;;;6.42;100.00
71145;BME280;58812;47.698;17.726;2023-02-19T07:48:09;100346.63;;;6.44;100.00
71145;BME280;58812;47.698;17.726;2023-02-19T07:50:34;100366.84;;;6.47;100.00
71145;BME280;58812;47.698;17.726;2023-02-19T07:53:00;100357.28;;;6.44;100.00
71145;BME280;58812;47.698;17.726;2023-02-19T07:55:25;100342.03;;;6.46;100.00
71145;BME280;58812;47.698;17.726;2023-02-19T07:57:51;100353.41;;;6.48;100.00
71145;BME280;58812;47.698;17.726;2023-02-19T08:00:16;100344.25;;;6.52;100.00
71145;BME280;58812;47.698;17.726;2023-02-19T08:02:43;100347.75;;;6.53;100.00
71145;BME280;58812;47.698;17.726;2023-02-19T08:05:32;100341.34;;;6.55;100.00
71145;BME280;58812;47.698;17.726;2023-02-19T08:07:58;100351.84;;;6.57;100.00
71145;BME280;58812;47.698;17.726;2023-02-19T08:10:24;100353.44;;;6.59;100.00
71145;BME280;58812;47.698;17.726;2023-02-19T08:13:14;100354.28;;;6.60;100.00
71145;BME280;58812;47.698;17.726;2023-02-19T08:16:17;100369.16;;;6.62;100.00
71145;BME280;58812;47.698;17.726;2023-02-19T08:18:43;100368.66;;;6.68;100.00
71145;BME280;58812;47.698;17.726;2023-02-19T08:21:09;100368.94;;;6.65;100.00
71145;BME280;58812;47.698;17.726;2023-02-19T08:23:34;100378.47;;;6.68;100.00
71145;BME280;58812;47.698;17.726;2023-02-19T08:26:00;100374.47;;;6.74;100.00
71145;BME280;58812;47.698;17.726;2023-02-19T08:28:27;100376.31;;;6.73;100.00
71145;BME280;58812;47.698;17.726;2023-02-19T08:30:52;100374.97;;;6.67;100.00
71145;BME280;58812;47.698;17.726;2023-02-19T08:33:22;100377.13;;;6.62;100.00
71145;BME280;58812;47.698;17.726;2023-02-19T08:35:47;100380.75;;;6.61;100.00
71145;BME280;58812;47.698;17.726;2023-02-19T08:38:13;100393.34;;;6.59;100.00
71145;BME280;58812;47.698;17.726;2023-02-19T08:40:41;100395.50;;;6.54;100.00
71145;BME280;58812;47.698;17.726;2023-02-19T08:43:09;100388.25;;;6.56;100.00
71145;BME280;58812;47.698;17.726;2023-02-19T08:45:40;100391.88;;;6.55;100.00
71145;BME280;58812;47.698;17.726;2023-02-19T08:48:06;100380.31;;;6.79;100.00
71145;BME280;58812;47.698;17.726;2023-02-19T08:50:32;100378.97;;;6.95;100.00
71145;BME280;58812;47.698;17.726;2023-02-19T08:52:59;100376.69;;;6.91;100.00
71145;BME280;58812;47.698;17.726;2023-02-19T08:55:25;100372.81;;;7.17;100.00
71145;BME280;58812;47.698;17.726;2023-02-19T08:57:50;100368.69;;;7.25;100.00
71145;BME280;58812;47.698;17.726;2023-02-19T09:00:16;100363.38;;;7.25;100.00
71145;BME280;58812;47.698;17.726;2023-02-19T09:02:41;100367.78;;;7.46;100.00
71145;BME280;58812;47.698;17.726;2023-02-19T09:05:07;100369.78;;;7.76;100.00
71145;BME280;58812;47.698;17.726;2023-02-19T09:07:33;100379.75;;;7.63;100.00
71145;BME280;58812;47.698;17.726;2023-02-19T09:09:59;100365.44;;;7.64;100.00
71145;BME280;58812;47.698;17.726;2023-02-19T09:12:24;100362.69;;;7.98;100.00
71145;BME280;58812;47.698;17.726;2023-02-19T09:14:50;100365.56;;;7.74;100.00
71145;BME280;58812;47.698;17.726;2023-02-19T09:17:16;100362.06;;;8.26;100.00
71145;BME280;58812;47.698;17.726;2023-02-19T09:19:41;100367.62;;;8.02;100.00
71145;BME280;58812;47.698;17.726;2023-02-19T09:22:07;100349.53;;;8.06;100.00
71145;BME280;58812;47.698;17.726;2023-02-19T09:24:33;100355.37;;;8.00;100.00
71145;BME280;58812;47.698;17.726;2023-02-19T09:26:58;100358.75;;;8.76;100.00
71145;BME280;58812;47.698;17.726;2023-02-19T09:29:26;100354.22;;;8.46;100.00
71145;BME280;58812;47.698;17.726;2023-02-19T09:31:56;100373.41;;;8.40;100.00
71145;BME280;58812;47.698;17.726;2023-02-19T09:34:22;100362.03;;;8.38;100.00
71145;BME280;58812;47.698;17.726;2023-02-19T09:36:48;100354.50;;;8.43;100.00
71145;BME280;58812;47.698;17.726;2023-02-19T09:39:14;100348.69;;;8.38;100.00
71145;BME280;58812;47.698;17.726;2023-02-19T09:41:48;100342.88;;;8.53;100.00
71145;BME280;58812;47.698;17.726;2023-02-19T09:44:36;100337.69;;;8.52;100.00
71145;BME280;58812;47.698;17.726;2023-02-19T09:47:08;100344.00;;;9.12;100.00
71145;BME280;58812;47.698;17.726;2023-02-19T09:49:40;100341.34;;;9.12;100.00
71145;BME280;58812;47.698;17.726;2023-02-19T09:52:17;100345.00;;;9.80;97.75
71145;BME280;58812;47.698;17.726;2023-02-19T09:54:45;100347.53;;;10.21;98.13
71145;BME280;58812;47.698;17.726;2023-02-19T09:57:15;100342.06;;;10.03;97.11
71145;BME280;58812;47.698;17.726;2023-02-19T09:59:49;100343.19;;;10.10;97.34
71145;BME280;58812;47.698;17.726;2023-02-19T10:04:44;100351.47;;;10.46;96.16
71145;BME280;58812;47.698;17.726;2023-02-19T10:07:19;100337.28;;;10.82;94.35
71145;BME280;58812;47.698;17.726;2023-02-19T10:09:56;100343.84;;;12.16;88.76
71145;BME280;58812;47.698;17.726;2023-02-19T10:12:25;100349.13;;;11.44;91.02
71145;BME280;58812;47.698;17.726;2023-02-19T10:14:55;100352.69;;;11.63;87.07
71145;BME280;58812;47.698;17.726;2023-02-19T10:17:27;100342.19;;;11.24;91.12
71145;BME280;58812;47.698;17.726;2023-02-19T10:19:55;100342.84;;;11.54;91.08
71145;BME280;58812;47.698;17.726;2023-02-19T10:22:21;100343.13;;;11.78;89.43
71145;BME280;58812;47.698;17.726;2023-02-19T10:24:50;100348.63;;;11.31;90.75
71145;BME280;58812;47.698;17.726;2023-02-19T10:27:17;100354.59;;;10.98;91.69
71145;BME280;58812;47.698;17.726;2023-02-19T10:29:44;100355.78;;;11.13;89.75
71145;BME280;58812;47.698;17.726;2023-02-19T10:32:18;100361.94;;;11.23;90.72
71145;BME280;58812;47.698;17.726;2023-02-19T10:35:12;100371.16;;;11.11;89.50
71145;BME280;58812;47.698;17.726;2023-02-19T10:37:46;100341.25;;;11.15;88.98
71145;BME280;58812;47.698;17.726;2023-02-19T10:40:18;100326.09;;;11.24;87.99
71145;BME280;58812;47.698;17.726;2023-02-19T10:42:47;100328.63;;;11.53;87.67
71145;BME280;58812;47.698;17.726;2023-02-19T10:47:55;100310.63;;;11.45;87.07
71145;BME280;58812;47.698;17.726;2023-02-19T10:50:33;100299.25;;;12.41;83.79
71145;BME280;58812;47.698;17.726;2023-02-19T10:53:03;100291.53;;;12.20;81.90
71145;BME280;58812;47.698;17.726;2023-02-19T10:55:34;100289.88;;;11.83;83.92
71145;BME280;58812;47.698;17.726;2023-02-19T10:58:35;100289.41;;;12.83;79.56
71145;BME280;58812;47.698;17.726;2023-02-19T11:01:17;100276.22;;;13.57;78.29
71145;BME280;58812;47.698;17.726;2023-02-19T11:03:48;100279.03;;;13.23;77.69
71145;BME280;58812;47.698;17.726;2023-02-19T11:06:20;100284.59;;;13.29;77.07
71145;BME280;58812;47.698;17.726;2023-02-19T11:08:56;100285.19;;;14.14;75.03
71145;BME280;58812;47.698;17.726;2023-02-19T11:11:41;100280.41;;;14.74;71.54
71145;BME280;58812;47.698;17.726;2023-02-19T11:14:15;100285.13;;;14.63;70.82
71145;BME280;58812;47.698;17.726;2023-02-19T11:16:47;100276.62;;;14.91;70.51
71145;BME280;58812;47.698;17.726;2023-02-19T11:19:36;100275.78;;;15.30;69.16
71145;BME280;58812;47.698;17.726;2023-02-19T11:24:53;100286.47;;;14.67;69.70
71145;BME280;58812;47.698;17.726;2023-02-19T11:27:21;100292.00;;;15.21;69.31
71145;BME280;58812;47.698;17.726;2023-02-19T11:29:47;100285.06;;;15.27;67.63
71145;BME280;58812;47.698;17.726;2023-02-19T11:34:47;100268.13;;;15.10;67.75
71145;BME280;58812;47.698;17.726;2023-02-19T11:37:17;100264.88;;;15.46;67.96
71145;BME280;58812;47.698;17.726;2023-02-19T11:39:47;100271.78;;;15.17;67.50
71145;BME280;58812;47.698;17.726;2023-02-19T11:42:51;100263.19;;;15.22;70.28
71145;BME280;58812;47.698;17.726;2023-02-19T11:45:32;100266.28;;;14.63;71.23
71145;BME280;58812;47.698;17.726;2023-02-19T11:48:15;100265.31;;;14.15;71.22
71145;BME280;58812;47.698;17.726;2023-02-19T11:53:31;100255.19;;;15.37;66.14
71145;BME280;58812;47.698;17.726;2023-02-19T11:58:50;100240.37;;;15.02;66.84
71145;BME280;58812;47.698;17.726;2023-02-19T12:05:02;100239.59;;;15.47;64.51
71145;BME280;58812;47.698;17.726;2023-02-19T12:07:24;100235.44;;;15.59;64.19
71145;BME280;58812;47.698;17.726;2023-02-19T12:13:31;100236.06;;;16.30;57.15
71145;BME280;58812;47.698;17.726;2023-02-19T12:16:29;100237.72;;;15.79;57.35
71145;BME280;58812;47.698;17.726;2023-02-19T12:24:48;100220.66;;;15.55;57.96
71145;BME280;58812;47.698;17.726;2023-02-19T12:38:42;100224.97;;;15.87;56.37
71145;BME280;58812;47.698;17.726;2023-02-19T12:43:53;100225.91;;;14.94;58.22
71145;BME280;58812;47.698;17.726;2023-02-19T12:46:27;100212.78;;;14.36;60.11
71145;BME280;58812;47.698;17.726;2023-02-19T12:48:58;100211.25;;;14.50;59.99
71145;BME280;58812;47.698;17.726;2023-02-19T12:51:35;100213.16;;;14.25;61.24
71145;BME280;58812;47.698;17.726;2023-02-19T12:54:19;100196.69;;;14.11;60.62
71145;BME280;58812;47.698;17.726;2023-02-19T12:57:01;100202.97;;;13.87;60.05
71145;BME280;58812;47.698;17.726;2023-02-19T13:05:07;100203.94;;;14.03;61.56
71145;BME280;58812;47.698;17.726;2023-02-19T13:13:06;100215.84;;;14.16;60.90
71145;BME280;58812;47.698;17.726;2023-02-19T13:15:40;100224.47;;;14.12;60.51
71145;BME280;58812;47.698;17.726;2023-02-19T13:18:19;100228.81;;;14.13;61.31
71145;BME280;58812;47.698;17.726;2023-02-19T13:20:47;100230.37;;;13.83;63.26
71145;BME280;58812;47.698;17.726;2023-02-19T13:23:29;100234.03;;;13.57;63.86
71145;BME280;58812;47.698;17.726;2023-02-19T13:26:21;100251.31;;;13.22;67.17
71145;BME280;58812;47.698;17.726;2023-02-19T13:34:07;100263.87;;;12.01;81.49
71145;BME280;58812;47.698;17.726;2023-02-19T13:36:36;100260.56;;;12.08;82.42
71145;BME280;58812;47.698;17.726;2023-02-19T13:39:06;100249.97;;;12.24;79.47
71145;BME280;58812;47.698;17.726;2023-02-19T13:41:39;100247.78;;;12.53;76.23
71145;BME280;58812;47.698;17.726;2023-02-19T13:44:13;100259.69;;;12.85;74.92
71145;BME280;58812;47.698;17.726;2023-02-19T13:46:43;100257.94;;;13.10;73.99
71145;BME280;58812;47.698;17.726;2023-02-19T13:52:42;100266.47;;;13.56;70.76
71145;BME280;58812;47.698;17.726;2023-02-19T13:54:49;100277.44;;;13.79;70.49
71145;BME280;58812;47.698;17.726;2023-02-19T13:59:48;100280.47;;;14.16;66.18
71145;BME280;58812;47.698;17.726;2023-02-19T14:04:46;100278.44;;;13.61;64.03
71145;BME280;58812;47.698;17.726;2023-02-19T14:19:59;100292.62;;;12.87;66.72
71145;BME280;58812;47.698;17.726;2023-02-19T14:33:12;100295.47;;;12.51;68.09
71145;BME280;58812;47.698;17.726;2023-02-19T14:35:43;100304.78;;;12.39;67.55
71145;BME280;58812;47.698;17.726;2023-02-19T14:38:20;100320.19;;;12.37;67.84
71145;BME280;58812;47.698;17.726;2023-02-19T14:40:47;100331.06;;;12.36;67.43
71145;BME280;58812;47.698;17.726;2023-02-19T14:43:17;100330.16;;;12.27;68.00
71145;BME280;58812;47.698;17.726;2023-02-19T14:45:56;100345.53;;;12.17;68.04
71145;BME280;58812;47.698;17.726;2023-02-19T14:48:32;100328.37;;;12.10;68.08
71145;BME280;58812;47.698;17.726;2023-02-19T14:51:06;100330.03;;;12.11;68.03
71145;BME280;58812;47.698;17.726;2023-02-19T14:53:37;100328.72;;;11.97;67.97
71145;BME280;58812;47.698;17.726;2023-02-19T14:56:06;100317.16;;;11.96;67.51
71145;BME280;58812;47.698;17.726;2023-02-19T14:58:41;100322.13;;;11.91;67.67
71145;BME280;58812;47.698;17.726;2023-02-19T15:01:24;100309.06;;;11.88;68.49